createdAt,value
2019-02-14T00:03:10.144Z,20.57
2019-02-14T00:08:13.972Z,21.83
2019-02-14T00:13:17.900Z,21.77
2019-02-14T00:18:21.805Z,21.57
2019-02-14T00:23:25.726Z,22.77
2019-02-14T00:28:29.916Z,21.43
2019-02-14T00:33:33.844Z,21.73
2019-02-14T00:38:38.004Z,22.33
2019-02-14T00:43:43.246Z,21.87
2019-02-14T00:48:47.205Z,21.37
2019-02-14T00:53:51.228Z,22.27
2019-02-14T00:58:55.224Z,23.20
2019-02-14T01:03:59.176Z,20.87
2019-02-14T01:09:03.219Z,21.10
2019-02-14T01:14:08.102Z,20.30
2019-02-14T01:19:12.005Z,20.80
2019-02-14T01:24:15.897Z,21.97
2019-02-14T01:29:19.966Z,21.77
2019-02-14T01:34:23.889Z,22.33
2019-02-14T01:39:27.818Z,23.27
2019-02-14T01:44:31.682Z,22.97
2019-02-14T01:49:36.279Z,23.33
2019-02-14T01:54:40.168Z,25.70
2019-02-14T01:59:44.146Z,24.27
2019-02-14T02:04:48.060Z,22.20
2019-02-14T02:09:51.976Z,23.80
2019-02-14T02:14:55.857Z,23.23
2019-02-14T02:19:59.773Z,24.00
2019-02-14T02:25:04.585Z,22.50
2019-02-14T02:30:10.735Z,21.87
2019-02-14T02:35:14.689Z,23.50
2019-02-14T02:40:18.682Z,24.23
2019-02-14T02:45:22.603Z,23.87
2019-02-14T02:50:26.636Z,24.70
2019-02-14T02:55:30.570Z,22.73
2019-02-14T03:00:34.472Z,23.17
2019-02-14T03:05:38.355Z,21.07
2019-02-14T03:10:42.313Z,21.50
2019-02-14T03:15:46.278Z,23.77
2019-02-14T03:20:50.248Z,23.90
2019-02-14T03:25:54.135Z,20.83
2019-02-14T03:30:57.972Z,21.63
2019-02-14T03:36:01.816Z,20.57
2019-02-14T03:41:05.779Z,22.73
2019-02-14T03:46:09.700Z,22.67
2019-02-14T03:51:13.692Z,20.70
2019-02-14T03:56:17.784Z,21.57
2019-02-14T04:01:21.778Z,22.90
2019-02-14T04:06:27.808Z,22.97
2019-02-14T04:11:31.815Z,22.73
2019-02-14T04:16:35.782Z,22.60
2019-02-14T04:21:39.594Z,23.10
2019-02-14T04:26:43.544Z,22.70
2019-02-14T04:31:47.436Z,23.10
2019-02-14T04:36:51.313Z,22.13
2019-02-14T04:41:55.282Z,23.17
2019-02-14T04:46:59.164Z,22.40
2019-02-14T04:52:03.063Z,22.53
2019-02-14T04:57:06.888Z,21.90
2019-02-14T05:02:10.716Z,23.97
2019-02-14T05:07:14.668Z,24.50
2019-02-14T05:12:18.581Z,22.83
2019-02-14T05:17:22.566Z,22.53
2019-02-14T05:22:26.449Z,20.87
2019-02-14T05:27:30.383Z,22.60
2019-02-14T05:32:34.246Z,21.30
2019-02-14T05:37:38.156Z,21.60
2019-02-14T05:42:41.963Z,21.90
2019-02-14T05:47:45.929Z,20.50
2019-02-14T05:52:49.949Z,23.27
2019-02-14T05:57:53.807Z,23.27
2019-02-14T06:02:57.801Z,23.07
2019-02-14T06:08:03.364Z,22.30
2019-02-14T06:13:07.342Z,22.20
2019-02-14T06:18:11.370Z,22.83
2019-02-14T06:23:15.307Z,20.73
2019-02-14T06:28:19.393Z,21.27
2019-02-14T06:33:23.352Z,22.23
2019-02-14T06:38:27.498Z,21.77
2019-02-14T06:43:31.850Z,21.97
2019-02-14T06:48:35.756Z,21.80
2019-02-14T06:53:39.768Z,21.50
2019-02-14T06:58:43.786Z,20.27
2019-02-14T07:03:47.793Z,21.53
2019-02-14T07:08:51.624Z,21.37
2019-02-14T07:13:55.575Z,20.47
2019-02-14T07:18:59.482Z,22.63
2019-02-14T07:24:03.444Z,21.20
2019-02-14T07:29:07.481Z,20.53
2019-02-14T07:34:11.418Z,21.90
2019-02-14T07:39:15.408Z,20.57
2019-02-14T07:44:19.571Z,21.17
2019-02-14T07:49:23.477Z,20.93
2019-02-14T07:54:27.564Z,21.30
2019-02-14T07:59:31.455Z,19.20
2019-02-14T08:04:35.449Z,19.73
2019-02-14T08:09:40.354Z,20.13
2019-02-14T08:14:44.392Z,18.73
2019-02-14T08:19:48.673Z,18.20
2019-02-14T08:24:52.582Z,17.80
2019-02-14T08:29:56.461Z,17.80
2019-02-14T08:35:00.536Z,17.47
2019-02-14T08:40:04.802Z,17.10
2019-02-14T08:45:09.781Z,16.10
2019-02-14T08:50:13.732Z,16.10
2019-02-14T08:55:17.820Z,16.20
2019-02-14T09:00:21.659Z,14.63
2019-02-14T09:05:25.644Z,14.63
2019-02-14T09:10:29.616Z,14.10
2019-02-14T09:15:33.460Z,13.30
2019-02-14T09:20:37.492Z,13.50
2019-02-14T09:25:42.227Z,13.40
2019-02-14T09:30:46.429Z,12.43
2019-02-14T09:35:50.382Z,12.20
2019-02-14T09:40:54.820Z,13.10
2019-02-14T09:45:59.010Z,13.73
2019-02-14T09:51:03.171Z,12.47
2019-02-14T09:56:07.786Z,11.77
2019-02-14T10:01:11.638Z,10.67
2019-02-14T10:06:15.656Z,11.87
2019-02-14T10:11:19.683Z,10.80
2019-02-14T10:16:23.614Z,10.27
2019-02-14T10:21:27.552Z,10.08
2019-02-14T10:26:31.760Z,10.55
2019-02-14T10:31:36.404Z,9.90
2019-02-14T10:36:40.424Z,9.95
2019-02-14T10:41:44.338Z,10.18
2019-02-14T10:46:48.362Z,10.50
2019-02-14T10:51:52.372Z,10.68
2019-02-14T10:56:56.296Z,10.18
2019-02-14T11:02:00.145Z,10.70
2019-02-14T11:07:04.154Z,10.20
2019-02-14T11:12:08.636Z,10.10
2019-02-14T11:17:13.261Z,9.00
2019-02-14T11:22:17.284Z,9.85
2019-02-14T11:27:21.172Z,9.55
2019-02-14T11:32:25.108Z,9.40
2019-02-14T11:37:29.169Z,9.83
2019-02-14T11:42:33.282Z,9.25
2019-02-14T11:47:37.090Z,9.25
2019-02-14T11:52:43.068Z,9.18
2019-02-14T11:57:47.052Z,10.20
2019-02-14T12:02:55.456Z,8.18
2019-02-14T12:07:56.776Z,9.28
2019-02-14T12:13:00.701Z,8.85
2019-02-14T12:18:04.816Z,9.58
2019-02-14T12:23:08.800Z,9.83
2019-02-14T12:28:12.734Z,8.68
2019-02-14T12:33:16.720Z,9.53
2019-02-14T12:38:20.744Z,9.63
2019-02-14T12:43:24.816Z,9.15
2019-02-14T12:48:28.920Z,9.08
2019-02-14T12:53:33.229Z,9.15
2019-02-14T12:58:37.210Z,9.00
2019-02-14T13:03:41.147Z,8.73
2019-02-14T13:08:45.085Z,8.88
2019-02-14T13:13:50.361Z,9.28
2019-02-14T13:18:54.638Z,8.75
2019-02-14T13:23:58.630Z,8.68
2019-02-14T13:29:02.538Z,8.53
2019-02-14T13:34:06.470Z,8.60
2019-02-14T13:39:10.694Z,7.25
2019-02-14T13:44:14.553Z,7.75
2019-02-14T13:49:18.781Z,6.95
2019-02-14T13:54:22.680Z,6.97
2019-02-14T13:59:26.588Z,7.00
2019-02-14T14:04:30.964Z,7.35
2019-02-14T14:09:38.711Z,7.22
2019-02-14T14:14:40.807Z,6.70
2019-02-14T14:19:44.729Z,7.28
2019-02-14T14:24:48.667Z,5.87
2019-02-14T14:29:53.006Z,6.62
2019-02-14T14:34:56.854Z,5.80
2019-02-14T14:40:00.963Z,5.70
2019-02-14T14:45:07.167Z,6.37
2019-02-14T14:50:11.171Z,6.65
2019-02-14T14:55:15.119Z,6.00
2019-02-14T15:00:19.284Z,6.42
2019-02-14T15:05:23.489Z,6.55
2019-02-14T15:10:27.486Z,5.72
2019-02-14T15:15:31.539Z,6.25
2019-02-14T15:20:35.525Z,5.72
2019-02-14T15:25:39.476Z,5.97
2019-02-14T15:30:43.588Z,6.17
2019-02-14T15:35:47.516Z,6.47
2019-02-14T15:40:51.387Z,7.00
2019-02-14T15:45:55.412Z,9.35
2019-02-14T15:50:59.555Z,8.90
2019-02-14T15:56:05.432Z,9.03
2019-02-14T16:01:09.197Z,8.65
2019-02-14T16:06:13.807Z,8.40
2019-02-14T16:11:19.620Z,8.35
2019-02-14T16:16:24.188Z,8.43
2019-02-14T16:21:29.526Z,8.60
2019-02-14T16:26:35.301Z,7.50
2019-02-14T16:31:39.627Z,8.18
2019-02-14T16:36:43.621Z,8.03
2019-02-14T16:41:47.628Z,8.88
2019-02-14T16:46:51.577Z,8.13
2019-02-14T16:51:55.501Z,8.08
2019-02-14T16:56:59.629Z,8.83
2019-02-14T17:02:03.547Z,8.05
2019-02-14T17:07:07.833Z,7.22
2019-02-14T17:12:11.731Z,7.70
2019-02-14T17:17:15.637Z,6.65
2019-02-14T17:22:20.915Z,7.78
2019-02-14T17:27:25.162Z,7.35
2019-02-14T17:32:32.083Z,7.90
2019-02-14T17:37:36.027Z,7.20
2019-02-14T17:42:40.080Z,8.20
2019-02-14T17:47:44.448Z,7.65
2019-02-14T17:52:48.501Z,7.70
2019-02-14T17:57:53.838Z,7.50
2019-02-14T18:02:59.043Z,8.28
2019-02-14T18:08:03.009Z,6.60
2019-02-14T18:13:07.105Z,7.37
2019-02-14T18:18:11.278Z,6.97
2019-02-14T18:23:15.195Z,7.83
2019-02-14T18:28:19.639Z,9.45
2019-02-14T18:33:23.752Z,8.13
2019-02-14T18:38:27.764Z,7.95
2019-02-14T18:43:31.620Z,7.83
2019-02-14T18:48:35.724Z,8.95
2019-02-14T18:53:39.748Z,7.80
2019-02-14T18:58:43.760Z,8.38
2019-02-14T19:03:47.619Z,9.18
2019-02-14T19:08:51.949Z,9.83
2019-02-14T19:13:55.930Z,8.85
2019-02-14T19:18:59.943Z,9.33
2019-02-14T19:24:03.967Z,8.88
2019-02-14T19:29:08.278Z,10.30
2019-02-14T19:34:12.454Z,8.95
2019-02-14T19:39:16.351Z,10.48
2019-02-14T19:44:20.204Z,12.30
2019-02-14T19:49:24.200Z,10.60
2019-02-14T19:54:28.221Z,11.00
2019-02-14T19:59:32.096Z,10.67
2019-02-14T20:04:36.124Z,10.47
2019-02-14T20:09:41.633Z,11.23
2019-02-14T20:14:45.729Z,9.80
2019-02-14T20:19:49.793Z,10.37
2019-02-14T20:24:57.252Z,10.40
2019-02-14T20:58:47.822Z,10.67
2019-02-14T21:04:03.143Z,10.50
2019-02-14T21:16:02.924Z,12.07
2019-02-14T21:21:07.440Z,11.87
2019-02-14T21:26:11.584Z,11.53
2019-02-14T21:31:15.841Z,11.00
2019-02-14T21:36:19.665Z,11.00
2019-02-14T21:41:23.668Z,11.07
2019-02-14T21:46:27.521Z,11.13
2019-02-14T21:51:31.423Z,11.77
2019-02-14T21:56:35.416Z,11.10
2019-02-14T22:01:39.453Z,11.93
2019-02-14T22:06:43.487Z,11.70
2019-02-14T22:11:47.502Z,11.33
2019-02-14T22:16:51.319Z,11.60
2019-02-14T22:21:55.426Z,11.27
2019-02-14T22:26:59.443Z,19.10
2019-02-14T22:32:03.407Z,11.07
2019-02-14T22:37:07.270Z,11.17
2019-02-14T22:42:11.380Z,11.13
2019-02-14T22:47:15.529Z,9.73
2019-02-14T22:52:20.062Z,11.60
2019-02-14T22:57:24.052Z,10.57
2019-02-14T23:02:28.051Z,9.50
2019-02-14T23:07:32.164Z,9.53
2019-02-14T23:12:36.006Z,10.60
2019-02-14T23:17:39.978Z,9.87
2019-02-14T23:22:43.868Z,10.03
2019-02-14T23:27:47.782Z,8.90
2019-02-14T23:32:51.770Z,10.13
2019-02-14T23:37:55.760Z,8.60
2019-02-14T23:43:04.847Z,9.23
2019-02-14T23:48:05.325Z,8.67
2019-02-14T23:53:09.268Z,9.17
2019-02-14T23:58:14.721Z,8.47
